Time,TemperatureF,DewpointF,PressureIn,WindDirection,WindDirectionDegrees,WindSpeedMPH,WindSpeedGustMPH,Humidity,HourlyPrecipIn,Conditions,Clouds,dailyrainin,SoftwareType,DateUTC
2013-08-16 00:03:00,95.8,55.0,29.78,SW,232,0.0,-999.0,25,-99.99,,,0.00,weatherlink.com 1.10,2013-08-16 07:03:00,
2013-08-16 00:18:00,95.5,55.0,29.78,SW,232,1.0,-999.0,25,-99.99,,,0.00,weatherlink.com 1.10,2013-08-16 07:18:00,
2013-08-16 00:33:00,95.0,54.0,29.78,SW,232,0.0,-999.0,25,-99.99,,,0.00,weatherlink.com 1.10,2013-08-16 07:33:00,
2013-08-16 00:48:00,94.4,55.0,29.78,SW,232,0.0,-999.0,26,-99.99,,,0.00,weatherlink.com 1.10,2013-08-16 07:48:00,
2013-08-16 01:04:00,93.9,54.0,29.78,SW,232,0.0,-999.0,26,-99.99,,,0.00,weatherlink.com 1.10,2013-08-16 08:04:00,
2013-08-16 01:19:00,93.5,55.0,29.78,SW,232,0.0,-999.0,27,-99.99,,,0.00,weatherlink.com 1.10,2013-08-16 08:19:00,
2013-08-16 01:34:00,92.8,55.0,29.78,SW,232,0.0,-999.0,28,-99.99,,,0.00,weatherlink.com 1.10,2013-08-16 08:34:00,
2013-08-16 01:49:00,92.6,55.0,29.78,SW,231,0.0,-999.0,28,-99.99,,,0.00,weatherlink.com 1.10,2013-08-16 08:49:00,
2013-08-16 02:04:00,92.1,56.0,29.78,SW,231,0.0,-999.0,29,-99.99,,,0.00,weatherlink.com 1.10,2013-08-16 09:04:00,
2013-08-16 02:19:00,91.8,56.0,29.78,SW,231,0.0,-999.0,30,-99.99,,,0.00,weatherlink.com 1.10,2013-08-16 09:19:00,
2013-08-16 02:34:00,91.5,56.0,29.78,SW,231,0.0,-999.0,30,-99.99,,,0.00,weatherlink.com 1.10,2013-08-16 09:34:00,
2013-08-16 02:49:00,91.1,57.0,29.78,SW,231,0.0,-999.0,31,-99.99,,,0.00,weatherlink.com 1.10,2013-08-16 09:49:00,
2013-08-16 03:04:00,91.0,57.0,29.78,SW,228,3.0,-999.0,32,-99.99,,,0.00,weatherlink.com 1.10,2013-08-16 10:04:00,
2013-08-16 03:19:00,90.7,58.0,29.77,SW,227,0.0,-999.0,33,-99.99,,,0.00,weatherlink.com 1.10,2013-08-16 10:19:00,
2013-08-16 03:33:00,90.2,57.0,29.77,SW,227,0.0,-999.0,33,-99.99,,,0.00,weatherlink.com 1.10,2013-08-16 10:33:00,
2013-08-16 03:48:00,89.7,58.0,29.77,SW,227,0.0,-999.0,34,-99.99,,,0.00,weatherlink.com 1.10,2013-08-16 10:48:00,
2013-08-16 04:03:00,88.7,58.0,29.77,SW,227,0.0,-999.0,36,-99.99,,,0.00,weatherlink.com 1.10,2013-08-16 11:03:00,
2013-08-16 04:19:00,88.1,59.0,29.77,SW,227,0.0,-999.0,37,-99.99,,,0.00,weatherlink.com 1.10,2013-08-16 11:19:00,
2013-08-16 04:34:00,88.2,59.0,29.77,SW,227,0.0,-999.0,37,-99.99,,,0.00,weatherlink.com 1.10,2013-08-16 11:34:00,
2013-08-16 04:49:00,87.7,59.0,29.78,SW,227,0.0,-999.0,38,-99.99,,,0.00,weatherlink.com 1.10,2013-08-16 11:49:00,
2013-08-16 05:04:00,87.1,59.0,29.77,SW,227,0.0,-999.0,39,-99.99,,,0.00,weatherlink.com 1.10,2013-08-16 12:04:00,
2013-08-16 05:19:00,86.4,59.0,29.78,SW,227,0.0,-999.0,40,-99.99,,,0.00,weatherlink.com 1.10,2013-08-16 12:19:00,
2013-08-16 05:34:00,86.2,59.0,29.78,SW,227,0.0,-999.0,40,-99.99,,,0.00,weatherlink.com 1.10,2013-08-16 12:34:00,
2013-08-16 05:49:00,85.9,59.0,29.79,SW,227,0.0,-999.0,40,-99.99,,,0.00,weatherlink.com 1.10,2013-08-16 12:49:00,
2013-08-16 06:04:00,85.5,59.0,29.79,SW,227,0.0,-999.0,41,-99.99,,,0.00,weatherlink.com 1.10,2013-08-16 13:04:00,
2013-08-16 06:19:00,85.5,59.0,29.79,SW,227,0.0,-999.0,41,-99.99,,,0.00,weatherlink.com 1.10,2013-08-16 13:19:00,
2013-08-16 06:34:00,85.1,60.0,29.79,SW,227,0.0,-999.0,43,-99.99,,,0.00,weatherlink.com 1.10,2013-08-16 13:34:00,
2013-08-16 06:49:00,86.5,60.0,29.80,SW,227,0.0,-999.0,41,-99.99,,,0.00,weatherlink.com 1.10,2013-08-16 13:49:00,
2013-08-16 07:04:00,88.1,62.0,29.80,SW,227,0.0,-999.0,41,-99.99,,,0.00,weatherlink.com 1.10,2013-08-16 14:04:00,
2013-08-16 07:19:00,89.9,62.0,29.80,SW,227,0.0,-999.0,39,-99.99,,,0.00,weatherlink.com 1.10,2013-08-16 14:19:00,
2013-08-16 07:34:00,91.9,61.0,29.80,South,184,3.0,-999.0,35,-99.99,,,0.00,weatherlink.com 1.10,2013-08-16 14:34:00,
2013-08-16 07:49:00,93.1,61.0,29.81,South,184,3.0,-999.0,34,-99.99,,,0.00,weatherlink.com 1.10,2013-08-16 14:49:00,
2013-08-16 08:04:00,94.0,61.0,29.81,South,182,0.0,-999.0,33,-99.99,,,0.00,weatherlink.com 1.10,2013-08-16 15:04:00,
2013-08-16 08:19:00,95.8,61.0,29.82,South,182,0.0,-999.0,31,-99.99,,,0.00,weatherlink.com 1.10,2013-08-16 15:19:00,
2013-08-16 08:34:00,98.4,60.0,29.81,South,182,0.0,-999.0,28,-99.99,,,0.00,weatherlink.com 1.10,2013-08-16 15:34:00,
2013-08-16 08:49:00,100.9,59.0,29.81,South,185,1.0,-999.0,25,-99.99,,,0.00,weatherlink.com 1.10,2013-08-16 15:49:00,
2013-08-16 09:04:00,101.1,58.0,29.82,NW,320,0.0,-999.0,24,-99.99,,,0.00,weatherlink.com 1.10,2013-08-16 16:04:00,
2013-08-16 09:19:00,101.0,58.0,29.82,NNW,327,4.0,-999.0,24,-99.99,,,0.00,weatherlink.com 1.10,2013-08-16 16:19:00,
2013-08-16 09:34:00,101.2,58.0,29.82,NNW,327,3.0,-999.0,24,-99.99,,,0.00,weatherlink.com 1.10,2013-08-16 16:34:00,
2013-08-16 09:49:00,102.2,58.0,29.82,NNW,327,2.0,-999.0,23,-99.99,,,0.00,weatherlink.com 1.10,2013-08-16 16:49:00,
2013-08-16 10:04:00,103.1,57.0,29.82,NNW,327,1.0,-999.0,22,-99.99,,,0.00,weatherlink.com 1.10,2013-08-16 17:04:00,
2013-08-16 10:19:00,103.2,58.0,29.82,WNW,288,4.0,-999.0,22,-99.99,,,0.00,weatherlink.com 1.10,2013-08-16 17:19:00,
2013-08-16 10:34:00,104.1,57.0,29.82,WNW,292,1.0,-999.0,21,-99.99,,,0.00,weatherlink.com 1.10,2013-08-16 17:34:00,
2013-08-16 10:49:00,105.2,58.0,29.82,WNW,300,3.0,-999.0,21,-99.99,,,0.00,weatherlink.com 1.10,2013-08-16 17:49:00,
2013-08-16 11:04:00,105.7,57.0,29.81,WNW,298,0.0,-999.0,20,-99.99,,,0.00,weatherlink.com 1.10,2013-08-16 18:04:00,
2013-08-16 11:19:00,106.3,58.0,29.80,West,271,2.0,-999.0,20,-99.99,,,0.00,weatherlink.com 1.10,2013-08-16 18:19:00,
2013-08-16 11:35:00,107.5,57.0,29.80,SW,229,0.0,-999.0,19,-99.99,,,0.00,weatherlink.com 1.10,2013-08-16 18:35:00,
2013-08-16 11:50:00,107.9,58.0,29.80,South,178,5.0,-999.0,19,-99.99,,,0.00,weatherlink.com 1.10,2013-08-16 18:50:00,
2013-08-16 12:05:00,108.2,56.0,29.79,South,172,2.0,-999.0,18,-99.99,,,0.00,weatherlink.com 1.10,2013-08-16 19:05:00,
2013-08-16 12:20:00,109.0,55.0,29.79,SE,134,1.0,-999.0,17,-99.99,,,0.00,weatherlink.com 1.10,2013-08-16 19:20:00,
2013-08-16 12:35:00,109.9,56.0,29.78,WNW,298,2.0,-999.0,17,-99.99,,,0.00,weatherlink.com 1.10,2013-08-16 19:35:00,
2013-08-16 12:50:00,110.1,56.0,29.78,NW,309,0.0,-999.0,17,-99.99,,,0.00,weatherlink.com 1.10,2013-08-16 19:50:00,
2013-08-16 13:05:00,110.9,57.0,29.77,NNW,327,5.0,-999.0,17,-99.99,,,0.00,weatherlink.com 1.10,2013-08-16 20:05:00,
2013-08-16 13:20:00,110.6,57.0,29.77,NW,319,0.0,-999.0,17,-99.99,,,0.00,weatherlink.com 1.10,2013-08-16 20:20:00,
2013-08-16 13:35:00,111.7,56.0,29.76,West,268,0.0,-999.0,16,-99.99,,,0.00,weatherlink.com 1.10,2013-08-16 20:35:00,
2013-08-16 13:50:00,112.2,58.0,29.75,West,274,5.0,-999.0,17,-99.99,,,0.00,weatherlink.com 1.10,2013-08-16 20:50:00,
2013-08-16 14:05:00,111.3,57.0,29.75,WNW,298,3.0,-999.0,17,-99.99,,,0.00,weatherlink.com 1.10,2013-08-16 21:05:00,
2013-08-16 14:20:00,111.3,57.0,29.74,NNE,24,1.0,-999.0,17,-99.99,,,0.00,weatherlink.com 1.10,2013-08-16 21:20:00,
2013-08-16 14:35:00,112.3,58.0,29.73,WNW,285,0.0,-999.0,17,-99.99,,,0.00,weatherlink.com 1.10,2013-08-16 21:35:00,
2013-08-16 14:50:00,113.2,57.0,29.73,South,188,4.0,-999.0,16,-99.99,,,0.00,weatherlink.com 1.10,2013-08-16 21:50:00,
2013-08-16 15:05:00,112.2,56.0,29.73,NW,310,0.0,-999.0,16,-99.99,,,0.00,weatherlink.com 1.10,2013-08-16 22:05:00,
2013-08-16 15:20:00,112.4,58.0,29.72,WNW,284,1.0,-999.0,17,-99.99,,,0.00,weatherlink.com 1.10,2013-08-16 22:20:00,
2013-08-16 15:35:00,113.5,57.0,29.71,NNW,339,7.0,-999.0,16,-99.99,,,0.00,weatherlink.com 1.10,2013-08-16 22:35:00,
2013-08-16 15:50:00,113.6,57.0,29.71,WNW,294,3.0,-999.0,16,-99.99,,,0.00,weatherlink.com 1.10,2013-08-16 22:50:00,
2013-08-16 16:05:00,112.6,58.0,29.71,NNE,22,4.0,-999.0,17,-99.99,,,0.00,weatherlink.com 1.10,2013-08-16 23:05:00,
2013-08-16 16:20:00,112.0,58.0,29.70,ENE,74,5.0,-999.0,17,-99.99,,,0.00,weatherlink.com 1.10,2013-08-16 23:20:00,
2013-08-16 16:35:00,110.3,60.0,29.70,SE,133,11.0,-999.0,19,-99.99,,,0.00,weatherlink.com 1.10,2013-08-16 23:35:00,
2013-08-16 16:50:00,107.4,65.0,29.70,SSE,154,2.0,-999.0,25,-99.99,,,0.00,weatherlink.com 1.10,2013-08-16 23:50:00,
2013-08-16 17:05:00,108.8,58.0,29.70,East,90,0.0,-999.0,19,-99.99,,,0.00,weatherlink.com 1.10,2013-08-17 00:05:00,
2013-08-16 17:20:00,110.9,58.0,29.70,East,86,0.0,-999.0,18,-99.99,,,0.00,weatherlink.com 1.10,2013-08-17 00:20:00,
2013-08-16 17:35:00,112.0,58.0,29.69,West,268,4.0,-999.0,17,-99.99,,,0.00,weatherlink.com 1.10,2013-08-17 00:35:00,
2013-08-16 17:50:00,111.1,57.0,29.69,SSE,167,2.0,-999.0,17,-99.99,,,0.00,weatherlink.com 1.10,2013-08-17 00:50:00,
2013-08-16 18:05:00,110.3,58.0,29.69,SSE,161,4.0,-999.0,18,-99.99,,,0.00,weatherlink.com 1.10,2013-08-17 01:05:00,
2013-08-16 18:20:00,109.6,57.0,29.70,South,169,0.0,-999.0,18,-99.99,,,0.00,weatherlink.com 1.10,2013-08-17 01:20:00,
2013-08-16 18:35:00,109.6,56.0,29.70,South,173,2.0,-999.0,17,-99.99,,,0.00,weatherlink.com 1.10,2013-08-17 01:35:00,
2013-08-16 18:50:00,108.9,55.0,29.70,WSW,240,2.0,-999.0,17,-99.99,,,0.00,weatherlink.com 1.10,2013-08-17 01:50:00,
2013-08-16 19:05:00,108.1,56.0,29.70,SW,236,2.0,-999.0,18,-99.99,,,0.00,weatherlink.com 1.10,2013-08-17 02:05:00,
2013-08-16 19:20:00,107.2,55.0,29.71,WSW,250,3.0,-999.0,18,-99.99,,,0.00,weatherlink.com 1.10,2013-08-17 02:20:00,
2013-08-16 19:35:00,106.7,55.0,29.71,WSW,248,3.0,-999.0,18,-99.99,,,0.00,weatherlink.com 1.10,2013-08-17 02:35:00,
2013-08-16 19:50:00,106.2,55.0,29.72,WSW,258,0.0,-999.0,18,-99.99,,,0.00,weatherlink.com 1.10,2013-08-17 02:50:00,
2013-08-16 20:05:00,105.8,54.0,29.73,WSW,257,3.0,-999.0,18,-99.99,,,0.00,weatherlink.com 1.10,2013-08-17 03:05:00,
2013-08-16 20:20:00,105.6,56.0,29.73,WSW,252,2.0,-999.0,19,-99.99,,,0.00,weatherlink.com 1.10,2013-08-17 03:20:00,
2013-08-16 20:35:00,105.4,55.0,29.74,WSW,242,0.0,-999.0,19,-99.99,,,0.00,weatherlink.com 1.10,2013-08-17 03:35:00,
2013-08-16 20:50:00,104.9,55.0,29.75,WSW,241,0.0,-999.0,19,-99.99,,,0.00,weatherlink.com 1.10,2013-08-17 03:50:00,
2013-08-16 21:05:00,104.4,55.0,29.75,WSW,242,0.0,-999.0,19,-99.99,,,0.00,weatherlink.com 1.10,2013-08-17 04:05:00,
2013-08-16 21:20:00,104.1,56.0,29.76,WSW,246,3.0,-999.0,20,-99.99,,,0.00,weatherlink.com 1.10,2013-08-17 04:20:00,
2013-08-16 21:35:00,103.6,55.0,29.76,WSW,246,1.0,-999.0,20,-99.99,,,0.00,weatherlink.com 1.10,2013-08-17 04:35:00,
2013-08-16 21:50:00,103.0,55.0,29.77,WSW,246,0.0,-999.0,20,-99.99,,,0.00,weatherlink.com 1.10,2013-08-17 04:50:00,
2013-08-16 22:05:00,102.4,56.0,29.76,SW,236,0.0,-999.0,21,-99.99,,,0.00,weatherlink.com 1.10,2013-08-17 05:05:00,
2013-08-16 22:20:00,102.4,56.0,29.77,SW,235,0.0,-999.0,21,-99.99,,,0.00,weatherlink.com 1.10,2013-08-17 05:20:00,
2013-08-16 22:35:00,102.2,55.0,29.77,SW,220,1.0,-999.0,21,-99.99,,,0.00,weatherlink.com 1.10,2013-08-17 05:35:00,
2013-08-16 22:50:00,101.2,58.0,29.77,SW,218,1.0,-999.0,24,-99.99,,,0.00,weatherlink.com 1.10,2013-08-17 05:50:00,
2013-08-16 23:05:00,99.7,59.0,29.77,SW,218,0.0,-999.0,26,-99.99,,,0.00,weatherlink.com 1.10,2013-08-17 06:05:00,
2013-08-16 23:21:00,98.8,59.0,29.77,SW,217,0.0,-999.0,27,-99.99,,,0.00,weatherlink.com 1.10,2013-08-17 06:21:00,
2013-08-16 23:35:00,98.3,59.0,29.77,SW,217,0.0,-999.0,27,-99.99,,,0.00,weatherlink.com 1.10,2013-08-17 06:35:00,
2013-08-16 23:51:00,97.6,58.0,29.77,SW,215,0.0,-999.0,27,-99.99,,,0.00,weatherlink.com 1.10,2013-08-17 06:51:00,